Nicole Leigh Reinauer — WCZ5696 — position and weather

sailwx.info

Track history (hours):
 
Tides and Currents Weather Stations Pressure Air Temp Water Temp Dewpoint Dewpoint Depression Visibility Wind Speed Wind Dir Waves Ship Positions

Nicole Leigh Reinauer

Owner: H A REINAUER INC, STATEN ISLAND, NY. More information available from US FCC via Universal Licensing System and Coast Guard Vessel Documentation Center.

Last reported at 2016-Jul-24 11:32 UTC. Time now 2016-Jul-24 22:26 UTC.
Position N 41°10' W 072°37'.

Length 167 m; draft 8.2 m.

Type: Tanker. MMSI: 366774330.

Date/timePositionNaut miles runAvg speedWind from/ knotsBaromVisibWave heightAir tempDewpointWater temp
2016-Jul-24 11:32N 41°10' W 072°37'9 9.4
2016-Jul-24 10:33N 41°10' W 072°25'9 8.9
2016-Jul-24 09:33N 41°12' W 072°14'49 9.8
2016-Jul-24 04:33N 41°38' W 071°18'1010.3
2016-Jul-24 03:33N 41°48' W 071°23'1 0.1
2016-Jul-23 19:27N 41°48' W 071°24'4 4.9
2016-Jul-23 18:33N 41°44' W 071°22'13 9.9
2016-Jul-23 17:14N 41°31' W 071°20'13110.3
2016-Jul-23 04:32N 40°29' W 073°54'1010.7
2016-Jul-23 03:33N 40°37' W 074°03'4 3.2
2016-Jul-23 02:23N 40°39' W 074°07'0 0.0
2016-Jul-23 01:32N 40°39' W 074°07'0 0.0
2016-Jul-23 00:32N 40°39' W 074°07'0 0.0
2016-Jul-22 23:32N 40°39' W 074°07'0 0.0
2016-Jul-22 22:32N 40°39' W 074°07'0 0.0
2016-Jul-22 21:32N 40°39' W 074°07'0 0.0
2016-Jul-22 20:29N 40°39' W 074°07'0 0.0
2016-Jul-22 19:08N 40°39' W 074°07'0 0.0
2016-Jul-22 18:29N 40°39' W 074°07'0 0.0
2016-Jul-22 17:32N 40°39' W 074°07'0 0.0
2016-Jul-22 16:32N 40°39' W 074°07'0 0.0
2016-Jul-22 15:29N 40°39' W 074°07'0 0.0
2016-Jul-22 14:29N 40°39' W 074°07'0 0.0
2016-Jul-22 13:23N 40°39' W 074°07'0 0.0
2016-Jul-22 12:32N 40°39' W 074°07'0 0.0
2016-Jul-22 11:32N 40°39' W 074°07'0 0.0
2016-Jul-22 09:26N 40°39' W 074°07'0 0.0
2016-Jul-22 08:32N 40°39' W 074°07'0 0.0
2016-Jul-22 07:29N 40°39' W 074°07'0 0.0
2016-Jul-22 04:14N 40°39' W 074°07'0 0.0
2016-Jul-22 03:29N 40°39' W 074°07'0 0.0
2016-Jul-22 02:32N 40°39' W 074°07'0 0.0
2016-Jul-22 01:32N 40°39' W 074°07'0 0.0
2016-Jul-22 00:23N 40°39' W 074°07'0 0.0
2016-Jul-21 23:29N 40°39' W 074°07'0 0.0
2016-Jul-21 22:33N 40°39' W 074°07'0 0.0
2016-Jul-21 21:33N 40°39' W 074°07'0 0.0
2016-Jul-21 20:33N 40°39' W 074°07'2 2.2
2016-Jul-21 19:33N 40°39' W 074°04'0 0.4
2016-Jul-21 18:31N 40°38' W 074°04'0 0.0
2016-Jul-21 17:31N 40°38' W 074°04'0 0.0
2016-Jul-21 16:33N 40°38' W 074°04'1 0.6
2016-Jul-21 15:33N 40°39' W 074°04'10 8.9
2016-Jul-21 14:29N 40°47' W 073°56'12310.2
2016-Jul-21 02:29N 41°28' W 071°23'1111.3
2016-Jul-21 01:33N 41°38' W 071°18'1110.7
2016-Jul-21 00:33N 41°48' W 071°23'1 0.0
2016-Jul-20 02:33N 41°48' W 071°24'5 4.9
2016-Jul-20 01:33N 41°43' W 071°21'1110.5
2016-Jul-20 00:29N 41°32' W 071°20'12510.1
2016-Jul-19 12:06N 40°30' W 073°43'712.0
2016-Jul-19 11:33N 40°28' W 073°51'9 9.4
2016-Jul-19 10:33N 40°29' W 074°03'9 9.1
2016-Jul-19 09:31N 40°31' W 074°15'8 0.2
2016-Jul-17 11:23N 40°39' W 074°11'7 8.4
2016-Jul-17 10:33N 40°40' W 074°02'0 0.1
2016-Jul-17 09:31N 40°40' W 074°02'0 0.1
2016-Jul-17 08:31N 40°40' W 074°02'0 0.1
2016-Jul-17 07:31N 40°40' W 074°02'0 0.0
2016-Jul-17 06:31N 40°40' W 074°02'0 0.0
2016-Jul-17 04:31N 40°40' W 074°02'0 0.0
2016-Jul-17 03:31N 40°40' W 074°02'0 0.0
2016-Jul-17 02:31N 40°40' W 074°02'0 0.2
2016-Jul-17 01:31N 40°40' W 074°02'0 0.0
2016-Jul-17 00:31N 40°40' W 074°02'0 0.0
2016-Jul-16 23:31N 40°40' W 074°02'0 0.0
2016-Jul-16 22:31N 40°40' W 074°02'0 0.0
2016-Jul-16 21:31N 40°40' W 074°02'0 0.0
2016-Jul-16 20:31N 40°40' W 074°02'0 0.1
2016-Jul-16 19:31N 40°40' W 074°02'0 0.1
2016-Jul-16 18:31N 40°40' W 074°02'0 0.1
2016-Jul-16 17:31N 40°40' W 074°02'0 0.0
2016-Jul-16 16:31N 40°40' W 074°02'0 0.0
2016-Jul-16 15:31N 40°40' W 074°02'0 0.0
2016-Jul-16 14:31N 40°40' W 074°02'0 0.0
2016-Jul-16 13:31N 40°40' W 074°02'0 0.1
2016-Jul-16 12:31N 40°40' W 074°02'0 0.2
2016-Jul-16 11:31N 40°40' W 074°02'0 0.0
2016-Jul-16 10:31N 40°40' W 074°02'0 0.1
2016-Jul-16 09:31N 40°40' W 074°02'0 0.1
2016-Jul-16 08:31N 40°40' W 074°02'0 0.1
2016-Jul-16 07:31N 40°40' W 074°02'0 0.1
2016-Jul-16 06:31N 40°40' W 074°02'0 0.0
2016-Jul-16 04:31N 40°40' W 074°02'0 0.1
2016-Jul-16 03:31N 40°40' W 074°02'0 0.0
2016-Jul-16 02:31N 40°40' W 074°02'0 0.0
2016-Jul-16 01:31N 40°40' W 074°02'0 0.2
2016-Jul-16 00:31N 40°40' W 074°02'0 0.0
2016-Jul-15 23:31N 40°40' W 074°02'0 0.0
2016-Jul-15 22:31N 40°40' W 074°02'0 0.0
2016-Jul-15 21:31N 40°40' W 074°02'0 0.0
2016-Jul-15 20:31N 40°40' W 074°02'0 0.1
2016-Jul-15 19:31N 40°40' W 074°02'0 0.2
2016-Jul-15 18:31N 40°40' W 074°02'0 0.0
2016-Jul-15 17:31N 40°40' W 074°02'0 0.0
2016-Jul-15 16:31N 40°40' W 074°02'0 0.0
2016-Jul-15 15:31N 40°40' W 074°02'0 0.0
2016-Jul-15 14:31N 40°40' W 074°02'0 0.0
2016-Jul-15 13:31N 40°40' W 074°02'0 0.0
2016-Jul-15 12:31N 40°40' W 074°02'0 0.2
2016-Jul-15 11:31N 40°40' W 074°02'0 0.1
2016-Jul-15 10:31N 40°40' W 074°02'0 0.0
2016-Jul-15 09:31N 40°40' W 074°02'0 0.0
2016-Jul-15 08:31N 40°40' W 074°02'0 0.0
2016-Jul-15 07:31N 40°40' W 074°02'0 0.1
2016-Jul-15 06:31N 40°40' W 074°02'0 0.1
2016-Jul-15 05:31N 40°40' W 074°02'0 0.0
2016-Jul-15 04:31N 40°40' W 074°02'0 0.0
2016-Jul-15 03:31N 40°40' W 074°02'0 0.0
2016-Jul-15 02:31N 40°40' W 074°02'0 0.0
2016-Jul-15 01:31N 40°40' W 074°02'0 0.2
2016-Jul-15 00:31N 40°40' W 074°03'0 0.2
2016-Jul-14 23:31N 40°40' W 074°02'0 0.1
2016-Jul-14 22:33N 40°40' W 074°02'0 0.0
2016-Jul-14 21:33N 40°40' W 074°02'0 0.0
2016-Jul-14 20:33N 40°40' W 074°02'0 0.2
2016-Jul-14 19:33N 40°40' W 074°02'4 4.0
2016-Jul-14 18:33N 40°39' W 074°07'0 0.4
2016-Jul-14 17:33N 40°38' W 074°08'0 0.0
2016-Jul-14 16:33N 40°38' W 074°08'0 0.0
2016-Jul-14 15:33N 40°38' W 074°08'0 0.0
2016-Jul-14 14:33N 40°38' W 074°08'4 4.3
2016-Jul-14 13:33N 40°40' W 074°02'0 0.0
2016-Jul-14 12:33N 40°40' W 074°02'0 0.0
2016-Jul-14 11:33N 40°40' W 074°02'  
Track history (hours):
 
Tides and Currents Weather Stations Pressure Air Temp Water Temp Dewpoint Dewpoint Depression Visibility Wind Speed Wind Dir Waves Ship Positions

Nicole Leigh Reinauer

Owner: H A REINAUER INC, STATEN ISLAND, NY. More information available from US FCC via Universal Licensing System and Coast Guard Vessel Documentation Center.

Last reported at 2016-Jul-24 11:32 UTC. Time now 2016-Jul-24 22:26 UTC.
Position N 41°10' W 072°37'.

Length 167 m; draft 8.2 m.

Type: Tanker. MMSI: 366774330.

Date/timePositionNaut miles runAvg speedWind from/ knotsBaromVisibWave heightAir tempDewpointWater temp
2016-Jul-24 11:32N 41°10' W 072°37'9 9.4
2016-Jul-24 10:33N 41°10' W 072°25'9 8.9
2016-Jul-24 09:33N 41°12' W 072°14'49 9.8
2016-Jul-24 04:33N 41°38' W 071°18'1010.3
2016-Jul-24 03:33N 41°48' W 071°23'1 0.1
2016-Jul-23 19:27N 41°48' W 071°24'4 4.9
2016-Jul-23 18:33N 41°44' W 071°22'13 9.9
2016-Jul-23 17:14N 41°31' W 071°20'13110.3
2016-Jul-23 04:32N 40°29' W 073°54'1010.7
2016-Jul-23 03:33N 40°37' W 074°03'4 3.2
2016-Jul-23 02:23N 40°39' W 074°07'0 0.0
2016-Jul-23 01:32N 40°39' W 074°07'0 0.0
2016-Jul-23 00:32N 40°39' W 074°07'0 0.0
2016-Jul-22 23:32N 40°39' W 074°07'0 0.0
2016-Jul-22 22:32N 40°39' W 074°07'0 0.0
2016-Jul-22 21:32N 40°39' W 074°07'0 0.0
2016-Jul-22 20:29N 40°39' W 074°07'0 0.0
2016-Jul-22 19:08N 40°39' W 074°07'0 0.0
2016-Jul-22 18:29N 40°39' W 074°07'0 0.0
2016-Jul-22 17:32N 40°39' W 074°07'0 0.0
2016-Jul-22 16:32N 40°39' W 074°07'0 0.0
2016-Jul-22 15:29N 40°39' W 074°07'0 0.0
2016-Jul-22 14:29N 40°39' W 074°07'0 0.0
2016-Jul-22 13:23N 40°39' W 074°07'0 0.0
2016-Jul-22 12:32N 40°39' W 074°07'0 0.0
2016-Jul-22 11:32N 40°39' W 074°07'0 0.0
2016-Jul-22 09:26N 40°39' W 074°07'0 0.0
2016-Jul-22 08:32N 40°39' W 074°07'0 0.0
2016-Jul-22 07:29N 40°39' W 074°07'0 0.0
2016-Jul-22 04:14N 40°39' W 074°07'0 0.0
2016-Jul-22 03:29N 40°39' W 074°07'0 0.0
2016-Jul-22 02:32N 40°39' W 074°07'0 0.0
2016-Jul-22 01:32N 40°39' W 074°07'0 0.0
2016-Jul-22 00:23N 40°39' W 074°07'0 0.0
2016-Jul-21 23:29N 40°39' W 074°07'0 0.0
2016-Jul-21 22:33N 40°39' W 074°07'0 0.0
2016-Jul-21 21:33N 40°39' W 074°07'0 0.0
2016-Jul-21 20:33N 40°39' W 074°07'2 2.2
2016-Jul-21 19:33N 40°39' W 074°04'0 0.4
2016-Jul-21 18:31N 40°38' W 074°04'0 0.0
2016-Jul-21 17:31N 40°38' W 074°04'0 0.0
2016-Jul-21 16:33N 40°38' W 074°04'1 0.6
2016-Jul-21 15:33N 40°39' W 074°04'10 8.9
2016-Jul-21 14:29N 40°47' W 073°56'12310.2
2016-Jul-21 02:29N 41°28' W 071°23'1111.3
2016-Jul-21 01:33N 41°38' W 071°18'1110.7
2016-Jul-21 00:33N 41°48' W 071°23'1 0.0
2016-Jul-20 02:33N 41°48' W 071°24'5 4.9
2016-Jul-20 01:33N 41°43' W 071°21'1110.5
2016-Jul-20 00:29N 41°32' W 071°20'12510.1
2016-Jul-19 12:06N 40°30' W 073°43'712.0
2016-Jul-19 11:33N 40°28' W 073°51'9 9.4
2016-Jul-19 10:33N 40°29' W 074°03'9 9.1
2016-Jul-19 09:31N 40°31' W 074°15'8 0.2
2016-Jul-17 11:23N 40°39' W 074°11'7 8.4
2016-Jul-17 10:33N 40°40' W 074°02'0 0.1
2016-Jul-17 09:31N 40°40' W 074°02'0 0.1
2016-Jul-17 08:31N 40°40' W 074°02'0 0.1
2016-Jul-17 07:31N 40°40' W 074°02'0 0.0
2016-Jul-17 06:31N 40°40' W 074°02'0 0.0
2016-Jul-17 04:31N 40°40' W 074°02'0 0.0
2016-Jul-17 03:31N 40°40' W 074°02'0 0.0
2016-Jul-17 02:31N 40°40' W 074°02'0 0.2
2016-Jul-17 01:31N 40°40' W 074°02'0 0.0
2016-Jul-17 00:31N 40°40' W 074°02'0 0.0
2016-Jul-16 23:31N 40°40' W 074°02'0 0.0
2016-Jul-16 22:31N 40°40' W 074°02'0 0.0
2016-Jul-16 21:31N 40°40' W 074°02'0 0.0
2016-Jul-16 20:31N 40°40' W 074°02'0 0.1
2016-Jul-16 19:31N 40°40' W 074°02'0 0.1
2016-Jul-16 18:31N 40°40' W 074°02'0 0.1
2016-Jul-16 17:31N 40°40' W 074°02'0 0.0
2016-Jul-16 16:31N 40°40' W 074°02'0 0.0
2016-Jul-16 15:31N 40°40' W 074°02'0 0.0
2016-Jul-16 14:31N 40°40' W 074°02'0 0.0
2016-Jul-16 13:31N 40°40' W 074°02'0 0.1
2016-Jul-16 12:31N 40°40' W 074°02'0 0.2
2016-Jul-16 11:31N 40°40' W 074°02'0 0.0
2016-Jul-16 10:31N 40°40' W 074°02'0 0.1
2016-Jul-16 09:31N 40°40' W 074°02'0 0.1
2016-Jul-16 08:31N 40°40' W 074°02'0 0.1
2016-Jul-16 07:31N 40°40' W 074°02'0 0.1
2016-Jul-16 06:31N 40°40' W 074°02'0 0.0
2016-Jul-16 04:31N 40°40' W 074°02'0 0.1
2016-Jul-16 03:31N 40°40' W 074°02'0 0.0
2016-Jul-16 02:31N 40°40' W 074°02'0 0.0
2016-Jul-16 01:31N 40°40' W 074°02'0 0.2
2016-Jul-16 00:31N 40°40' W 074°02'0 0.0
2016-Jul-15 23:31N 40°40' W 074°02'0 0.0
2016-Jul-15 22:31N 40°40' W 074°02'0 0.0
2016-Jul-15 21:31N 40°40' W 074°02'0 0.0
2016-Jul-15 20:31N 40°40' W 074°02'0 0.1
2016-Jul-15 19:31N 40°40' W 074°02'0 0.2
2016-Jul-15 18:31N 40°40' W 074°02'0 0.0
2016-Jul-15 17:31N 40°40' W 074°02'0 0.0
2016-Jul-15 16:31N 40°40' W 074°02'0 0.0
2016-Jul-15 15:31N 40°40' W 074°02'0 0.0
2016-Jul-15 14:31N 40°40' W 074°02'0 0.0
2016-Jul-15 13:31N 40°40' W 074°02'0 0.0
2016-Jul-15 12:31N 40°40' W 074°02'0 0.2
2016-Jul-15 11:31N 40°40' W 074°02'0 0.1
2016-Jul-15 10:31N 40°40' W 074°02'0 0.0
2016-Jul-15 09:31N 40°40' W 074°02'0 0.0
2016-Jul-15 08:31N 40°40' W 074°02'0 0.0
2016-Jul-15 07:31N 40°40' W 074°02'0 0.1
2016-Jul-15 06:31N 40°40' W 074°02'0 0.1
2016-Jul-15 05:31N 40°40' W 074°02'0 0.0
2016-Jul-15 04:31N 40°40' W 074°02'0 0.0
2016-Jul-15 03:31N 40°40' W 074°02'0 0.0
2016-Jul-15 02:31N 40°40' W 074°02'0 0.0
2016-Jul-15 01:31N 40°40' W 074°02'0 0.2
2016-Jul-15 00:31N 40°40' W 074°03'0 0.2
2016-Jul-14 23:31N 40°40' W 074°02'0 0.1
2016-Jul-14 22:33N 40°40' W 074°02'0 0.0
2016-Jul-14 21:33N 40°40' W 074°02'0 0.0
2016-Jul-14 20:33N 40°40' W 074°02'0 0.2
2016-Jul-14 19:33N 40°40' W 074°02'4 4.0
2016-Jul-14 18:33N 40°39' W 074°07'0 0.4
2016-Jul-14 17:33N 40°38' W 074°08'0 0.0
2016-Jul-14 16:33N 40°38' W 074°08'0 0.0
2016-Jul-14 15:33N 40°38' W 074°08'0 0.0
2016-Jul-14 14:33N 40°38' W 074°08'4 4.3
2016-Jul-14 13:33N 40°40' W 074°02'0 0.0
2016-Jul-14 12:33N 40°40' W 074°02'0 0.0
2016-Jul-14 11:33N 40°40' W 074°02'  

Dump ship's entire track history